sensor_id;sensor_type;location;lat;lon;timestamp;P1;durP1;ratioP1;P2;durP2;ratioP2
79346;SDS011;68815;48.810;44.482;2023-04-24T00:00:08;15.7;;;7.3;;
79346;SDS011;68815;48.810;44.482;2023-04-24T00:03:10;20.7;;;10.9;;
79346;SDS011;68815;48.810;44.482;2023-04-24T00:06:12;15.6;;;8.5;;
79346;SDS011;68815;48.810;44.482;2023-04-24T00:09:13;15.2;;;7.9;;
79346;SDS011;68815;48.810;44.482;2023-04-24T00:12:15;17.7;;;9.3;;
79346;SDS011;68815;48.810;44.482;2023-04-24T00:15:17;18.8;;;9.5;;
79346;SDS011;68815;48.810;44.482;2023-04-24T00:18:18;16.7;;;9.5;;
79346;SDS011;68815;48.810;44.482;2023-04-24T00:21:20;18;;;9.5;;
79346;SDS011;68815;48.810;44.482;2023-04-24T00:24:22;16.7;;;9.4;;
79346;SDS011;68815;48.810;44.482;2023-04-24T00:27:23;21;;;9.9;;
79346;SDS011;68815;48.810;44.482;2023-04-24T00:30:30;17.6;;;10;;
79346;SDS011;68815;48.810;44.482;2023-04-24T00:33:32;17.9;;;9.9;;
79346;SDS011;68815;48.810;44.482;2023-04-24T00:36:34;15;;;9.5;;
79346;SDS011;68815;48.810;44.482;2023-04-24T00:39:35;19.8;;;12;;
79346;SDS011;68815;48.810;44.482;2023-04-24T00:42:38;19.6;;;9.8;;
79346;SDS011;68815;48.810;44.482;2023-04-24T00:45:40;17.1;;;9.2;;
79346;SDS011;68815;48.810;44.482;2023-04-24T00:48:42;18.1;;;9.5;;
79346;SDS011;68815;48.810;44.482;2023-04-24T00:51:44;15.8;;;9.4;;
79346;SDS011;68815;48.810;44.482;2023-04-24T00:54:45;17.3;;;10.1;;
79346;SDS011;68815;48.810;44.482;2023-04-24T00:57:47;19.6;;;10.5;;
79346;SDS011;68815;48.810;44.482;2023-04-24T01:00:50;18.9;;;10.6;;
79346;SDS011;68815;48.810;44.482;2023-04-24T01:03:52;18.4;;;10.5;;
79346;SDS011;68815;48.810;44.482;2023-04-24T01:06:54;18.1;;;10.5;;
79346;SDS011;68815;48.810;44.482;2023-04-24T01:09:56;17.8;;;10.4;;
79346;SDS011;68815;48.810;44.482;2023-04-24T01:12:58;19;;;11.1;;
79346;SDS011;68815;48.810;44.482;2023-04-24T01:15:59;17.2;;;10.2;;
79346;SDS011;68815;48.810;44.482;2023-04-24T01:19:02;19.8;;;11.2;;
79346;SDS011;68815;48.810;44.482;2023-04-24T01:22:07;18.5;;;10.3;;
79346;SDS011;68815;48.810;44.482;2023-04-24T01:25:10;20;;;10;;
79346;SDS011;68815;48.810;44.482;2023-04-24T01:28:11;18.1;;;10.3;;
79346;SDS011;68815;48.810;44.482;2023-04-24T01:31:13;16.6;;;9.1;;
79346;SDS011;68815;48.810;44.482;2023-04-24T01:34:15;15;;;9.5;;
79346;SDS011;68815;48.810;44.482;2023-04-24T01:37:17;17;;;9.3;;
79346;SDS011;68815;48.810;44.482;2023-04-24T01:40:18;16.4;;;9;;
79346;SDS011;68815;48.810;44.482;2023-04-24T01:43:20;17.3;;;9.1;;
79346;SDS011;68815;48.810;44.482;2023-04-24T01:46:23;15.5;;;8.4;;
79346;SDS011;68815;48.810;44.482;2023-04-24T01:49:25;14.6;;;8;;
79346;SDS011;68815;48.810;44.482;2023-04-24T01:52:27;15.2;;;8.2;;
79346;SDS011;68815;48.810;44.482;2023-04-24T01:55:29;15.8;;;8.8;;
79346;SDS011;68815;48.810;44.482;2023-04-24T01:58:31;18;;;9.1;;
79346;SDS011;68815;48.810;44.482;2023-04-24T02:01:33;17.4;;;9.5;;
79346;SDS011;68815;48.810;44.482;2023-04-24T02:04:35;17.6;;;9.8;;
79346;SDS011;68815;48.810;44.482;2023-04-24T02:07:36;18.3;;;9.8;;
79346;SDS011;68815;48.810;44.482;2023-04-24T02:10:38;18.8;;;9.6;;
79346;SDS011;68815;48.810;44.482;2023-04-24T02:13:40;19.1;;;9.4;;
79346;SDS011;68815;48.810;44.482;2023-04-24T02:16:42;22.8;;;9.9;;
79346;SDS011;68815;48.810;44.482;2023-04-24T02:19:43;18.4;;;9.9;;
79346;SDS011;68815;48.810;44.482;2023-04-24T02:22:45;20.3;;;10.2;;
79346;SDS011;68815;48.810;44.482;2023-04-24T02:25:47;20.5;;;10.6;;
79346;SDS011;68815;48.810;44.482;2023-04-24T02:28:48;21.3;;;10.4;;
79346;SDS011;68815;48.810;44.482;2023-04-24T02:31:50;21.2;;;11;;
79346;SDS011;68815;48.810;44.482;2023-04-24T02:34:51;21.1;;;10.8;;
79346;SDS011;68815;48.810;44.482;2023-04-24T02:37:53;19;;;11.3;;
79346;SDS011;68815;48.810;44.482;2023-04-24T02:40:54;21.8;;;11.3;;
79346;SDS011;68815;48.810;44.482;2023-04-24T02:43:56;21.6;;;12.4;;
79346;SDS011;68815;48.810;44.482;2023-04-24T02:46:58;24.7;;;13.1;;
79346;SDS011;68815;48.810;44.482;2023-04-24T02:50:00;25.4;;;13.9;;
79346;SDS011;68815;48.810;44.482;2023-04-24T02:53:01;23.7;;;13.3;;
79346;SDS011;68815;48.810;44.482;2023-04-24T02:56:03;25.4;;;13.5;;
79346;SDS011;68815;48.810;44.482;2023-04-24T02:59:04;22;;;12.8;;
79346;SDS011;68815;48.810;44.482;2023-04-24T03:02:06;26.7;;;13;;
79346;SDS011;68815;48.810;44.482;2023-04-24T03:05:07;27.7;;;12.2;;
79346;SDS011;68815;48.810;44.482;2023-04-24T03:08:09;22.8;;;12.7;;
79346;SDS011;68815;48.810;44.482;2023-04-24T03:11:10;23.3;;;12;;
79346;SDS011;68815;48.810;44.482;2023-04-24T03:14:12;24.4;;;12.4;;
79346;SDS011;68815;48.810;44.482;2023-04-24T03:17:13;22.7;;;11.2;;
79346;SDS011;68815;48.810;44.482;2023-04-24T03:20:15;22.2;;;11.2;;
79346;SDS011;68815;48.810;44.482;2023-04-24T03:23:16;21.1;;;11.4;;
79346;SDS011;68815;48.810;44.482;2023-04-24T03:26:18;21.1;;;11.7;;
79346;SDS011;68815;48.810;44.482;2023-04-24T03:29:20;23.4;;;12.3;;
79346;SDS011;68815;48.810;44.482;2023-04-24T03:32:21;27.7;;;13.4;;
79346;SDS011;68815;48.810;44.482;2023-04-24T03:35:23;25.3;;;12.2;;
79346;SDS011;68815;48.810;44.482;2023-04-24T03:38:25;26.6;;;13;;
79346;SDS011;68815;48.810;44.482;2023-04-24T03:41:26;22.2;;;12.3;;
79346;SDS011;68815;48.810;44.482;2023-04-24T03:44:28;22.8;;;12.2;;
79346;SDS011;68815;48.810;44.482;2023-04-24T03:47:30;23;;;13.7;;
79346;SDS011;68815;48.810;44.482;2023-04-24T03:50:31;23.2;;;11.4;;
79346;SDS011;68815;48.810;44.482;2023-04-24T03:53:33;21.3;;;11.5;;
79346;SDS011;68815;48.810;44.482;2023-04-24T03:56:34;23.4;;;12;;
79346;SDS011;68815;48.810;44.482;2023-04-24T03:59:36;22.4;;;11.9;;
79346;SDS011;68815;48.810;44.482;2023-04-24T04:02:37;22.3;;;11.8;;
79346;SDS011;68815;48.810;44.482;2023-04-24T04:05:39;20;;;11.6;;
79346;SDS011;68815;48.810;44.482;2023-04-24T04:08:40;21.6;;;10.9;;
79346;SDS011;68815;48.810;44.482;2023-04-24T04:11:42;20.1;;;10.4;;
79346;SDS011;68815;48.810;44.482;2023-04-24T04:14:43;18.6;;;10.3;;
79346;SDS011;68815;48.810;44.482;2023-04-24T04:17:45;19.6;;;10.4;;
79346;SDS011;68815;48.810;44.482;2023-04-24T04:20:46;22.6;;;11.9;;
79346;SDS011;68815;48.810;44.482;2023-04-24T04:23:48;21.5;;;11.1;;
79346;SDS011;68815;48.810;44.482;2023-04-24T04:26:49;24;;;11.7;;
79346;SDS011;68815;48.810;44.482;2023-04-24T04:29:51;24;;;12.6;;
79346;SDS011;68815;48.810;44.482;2023-04-24T04:32:52;21.9;;;11.9;;
79346;SDS011;68815;48.810;44.482;2023-04-24T04:35:54;22.9;;;12.8;;
79346;SDS011;68815;48.810;44.482;2023-04-24T04:38:55;22.4;;;11.8;;
79346;SDS011;68815;48.810;44.482;2023-04-24T04:41:57;23.4;;;13.1;;
79346;SDS011;68815;48.810;44.482;2023-04-24T04:44:58;24.1;;;12.1;;
79346;SDS011;68815;48.810;44.482;2023-04-24T04:47:59;29.7;;;12.8;;
79346;SDS011;68815;48.810;44.482;2023-04-24T04:51:02;24.1;;;12.2;;
79346;SDS011;68815;48.810;44.482;2023-04-24T04:54:03;27.4;;;13.1;;
79346;SDS011;68815;48.810;44.482;2023-04-24T04:57:05;23.8;;;12;;
79346;SDS011;68815;48.810;44.482;2023-04-24T05:00:07;25.1;;;12.4;;
79346;SDS011;68815;48.810;44.482;2023-04-24T05:03:09;22.5;;;11.9;;
79346;SDS011;68815;48.810;44.482;2023-04-24T05:06:10;25.7;;;12.2;;
79346;SDS011;68815;48.810;44.482;2023-04-24T05:09:12;24.6;;;12.1;;
79346;SDS011;68815;48.810;44.482;2023-04-24T05:12:13;23.3;;;11.7;;
79346;SDS011;68815;48.810;44.482;2023-04-24T05:15:15;24.4;;;11.8;;
79346;SDS011;68815;48.810;44.482;2023-04-24T05:18:16;21.8;;;12.1;;
79346;SDS011;68815;48.810;44.482;2023-04-24T05:21:18;22.1;;;11.8;;
79346;SDS011;68815;48.810;44.482;2023-04-24T05:24:19;25;;;11.9;;
79346;SDS011;68815;48.810;44.482;2023-04-24T05:27:20;20.9;;;11;;
79346;SDS011;68815;48.810;44.482;2023-04-24T05:30:23;23.4;;;11.9;;
79346;SDS011;68815;48.810;44.482;2023-04-24T05:33:24;22.1;;;11.7;;
79346;SDS011;68815;48.810;44.482;2023-04-24T05:36:26;17.1;;;9.3;;
79346;SDS011;68815;48.810;44.482;2023-04-24T05:39:27;15.4;;;9.2;;
79346;SDS011;68815;48.810;44.482;2023-04-24T05:42:28;18;;;8.5;;
79346;SDS011;68815;48.810;44.482;2023-04-24T05:45:30;17.5;;;8.7;;
79346;SDS011;68815;48.810;44.482;2023-04-24T05:48:31;19.7;;;10.1;;
79346;SDS011;68815;48.810;44.482;2023-04-24T05:51:33;20.7;;;10.4;;
79346;SDS011;68815;48.810;44.482;2023-04-24T05:54:35;18;;;9.5;;
79346;SDS011;68815;48.810;44.482;2023-04-24T05:57:36;19.2;;;9.7;;
79346;SDS011;68815;48.810;44.482;2023-04-24T06:00:38;18.8;;;10;;
79346;SDS011;68815;48.810;44.482;2023-04-24T06:03:40;22.3;;;9.8;;
79346;SDS011;68815;48.810;44.482;2023-04-24T06:06:41;23.2;;;9.6;;
79346;SDS011;68815;48.810;44.482;2023-04-24T06:09:43;20.9;;;9.5;;
79346;SDS011;68815;48.810;44.482;2023-04-24T06:12:44;18.9;;;9.2;;
79346;SDS011;68815;48.810;44.482;2023-04-24T06:15:46;18.2;;;7.7;;
79346;SDS011;68815;48.810;44.482;2023-04-24T06:18:47;13.8;;;5.7;;
79346;SDS011;68815;48.810;44.482;2023-04-24T06:21:49;13.7;;;5.4;;
79346;SDS011;68815;48.810;44.482;2023-04-24T06:24:50;11.6;;;4.1;;
79346;SDS011;68815;48.810;44.482;2023-04-24T06:27:51;12.1;;;4.1;;
79346;SDS011;68815;48.810;44.482;2023-04-24T06:30:54;17.7;;;5.1;;
79346;SDS011;68815;48.810;44.482;2023-04-24T06:33:55;15.4;;;4.3;;
79346;SDS011;68815;48.810;44.482;2023-04-24T06:36:57;12.5;;;5;;
79346;SDS011;68815;48.810;44.482;2023-04-24T06:39:58;16.4;;;5.1;;
79346;SDS011;68815;48.810;44.482;2023-04-24T06:42:59;11.4;;;5.5;;
79346;SDS011;68815;48.810;44.482;2023-04-24T06:46:01;14;;;5.6;;
79346;SDS011;68815;48.810;44.482;2023-04-24T06:49:02;11.5;;;5.4;;
79346;SDS011;68815;48.810;44.482;2023-04-24T06:52:04;11.9;;;4.7;;
79346;SDS011;68815;48.810;44.482;2023-04-24T06:55:06;12.4;;;5.4;;
79346;SDS011;68815;48.810;44.482;2023-04-24T06:58:08;10.3;;;5.1;;
79346;SDS011;68815;48.810;44.482;2023-04-24T07:01:10;10.7;;;5.4;;
79346;SDS011;68815;48.810;44.482;2023-04-24T07:04:11;11.4;;;5;;
79346;SDS011;68815;48.810;44.482;2023-04-24T07:07:13;14;;;5.7;;
79346;SDS011;68815;48.810;44.482;2023-04-24T07:10:14;12.8;;;6.8;;
79346;SDS011;68815;48.810;44.482;2023-04-24T07:13:16;12;;;6.2;;
79346;SDS011;68815;48.810;44.482;2023-04-24T07:16:17;12.7;;;5.9;;
79346;SDS011;68815;48.810;44.482;2023-04-24T07:22:51;12;;;5.6;;
79346;SDS011;68815;48.810;44.482;2023-04-24T07:25:52;14.6;;;6.1;;
79346;SDS011;68815;48.810;44.482;2023-04-24T07:28:54;13.2;;;6.5;;
79346;SDS011;68815;48.810;44.482;2023-04-24T07:31:55;14.6;;;6.6;;
79346;SDS011;68815;48.810;44.482;2023-04-24T07:34:57;14;;;6.6;;
79346;SDS011;68815;48.810;44.482;2023-04-24T07:37:58;12.3;;;5.1;;
79346;SDS011;68815;48.810;44.482;2023-04-24T07:40:59;14.6;;;5.8;;
79346;SDS011;68815;48.810;44.482;2023-04-24T07:44:01;10.4;;;4.8;;
79346;SDS011;68815;48.810;44.482;2023-04-24T07:47:03;10.6;;;4.3;;
79346;SDS011;68815;48.810;44.482;2023-04-24T07:50:05;12.4;;;4.6;;
79346;SDS011;68815;48.810;44.482;2023-04-24T07:53:07;10.6;;;3.9;;
79346;SDS011;68815;48.810;44.482;2023-04-24T07:56:08;7.2;;;3.2;;
79346;SDS011;68815;48.810;44.482;2023-04-24T07:59:10;8.3;;;2.5;;
79346;SDS011;68815;48.810;44.482;2023-04-24T08:02:12;8;;;2.9;;
79346;SDS011;68815;48.810;44.482;2023-04-24T08:05:13;7.4;;;3.2;;
79346;SDS011;68815;48.810;44.482;2023-04-24T08:08:15;6.4;;;3.2;;
79346;SDS011;68815;48.810;44.482;2023-04-24T08:11:17;7.9;;;2.9;;
79346;SDS011;68815;48.810;44.482;2023-04-24T08:14:18;7.1;;;3.1;;
79346;SDS011;68815;48.810;44.482;2023-04-24T08:17:20;6.9;;;2.5;;
79346;SDS011;68815;48.810;44.482;2023-04-24T08:20:22;5.9;;;2.1;;
79346;SDS011;68815;48.810;44.482;2023-04-24T08:23:24;4.8;;;2.4;;
79346;SDS011;68815;48.810;44.482;2023-04-24T08:26:25;6.5;;;2.6;;
79346;SDS011;68815;48.810;44.482;2023-04-24T08:29:27;6.8;;;2.5;;
79346;SDS011;68815;48.810;44.482;2023-04-24T08:32:29;6.1;;;2.5;;
79346;SDS011;68815;48.810;44.482;2023-04-24T08:35:30;7.1;;;2.6;;
79346;SDS011;68815;48.810;44.482;2023-04-24T08:38:32;6.4;;;2.3;;
79346;SDS011;68815;48.810;44.482;2023-04-24T08:41:35;8;;;2.4;;
79346;SDS011;68815;48.810;44.482;2023-04-24T08:44:37;8.9;;;2.1;;
79346;SDS011;68815;48.810;44.482;2023-04-24T08:47:39;4.9;;;2;;
79346;SDS011;68815;48.810;44.482;2023-04-24T08:50:41;7.3;;;2.3;;
79346;SDS011;68815;48.810;44.482;2023-04-24T08:53:44;7.6;;;2.7;;
79346;SDS011;68815;48.810;44.482;2023-04-24T08:56:47;6;;;2.5;;
79346;SDS011;68815;48.810;44.482;2023-04-24T08:59:49;7.2;;;2.5;;
79346;SDS011;68815;48.810;44.482;2023-04-24T09:02:51;5.6;;;2.4;;
79346;SDS011;68815;48.810;44.482;2023-04-24T09:05:54;6.6;;;2.5;;
79346;SDS011;68815;48.810;44.482;2023-04-24T09:08:57;4.6;;;2.1;;
79346;SDS011;68815;48.810;44.482;2023-04-24T09:12:01;5.3;;;2.6;;
79346;SDS011;68815;48.810;44.482;2023-04-24T09:15:04;4.7;;;1.7;;
79346;SDS011;68815;48.810;44.482;2023-04-24T09:18:06;11;;;2;;
79346;SDS011;68815;48.810;44.482;2023-04-24T09:21:08;4.4;;;1.9;;
79346;SDS011;68815;48.810;44.482;2023-04-24T09:24:14;5.6;;;1.9;;
79346;SDS011;68815;48.810;44.482;2023-04-24T09:27:17;4.5;;;1.8;;
79346;SDS011;68815;48.810;44.482;2023-04-24T09:30:21;4;;;1.9;;
79346;SDS011;68815;48.810;44.482;2023-04-24T09:33:22;6.7;;;2.4;;
79346;SDS011;68815;48.810;44.482;2023-04-24T09:36:28;6.3;;;2.1;;
79346;SDS011;68815;48.810;44.482;2023-04-24T09:39:31;4.3;;;2;;
79346;SDS011;68815;48.810;44.482;2023-04-24T09:42:32;5.5;;;2;;
79346;SDS011;68815;48.810;44.482;2023-04-24T09:45:35;6.6;;;2;;
79346;SDS011;68815;48.810;44.482;2023-04-24T09:48:37;5.8;;;1.7;;
79346;SDS011;68815;48.810;44.482;2023-04-24T09:51:39;4.8;;;1.7;;
79346;SDS011;68815;48.810;44.482;2023-04-24T09:54:41;5.2;;;1.9;;
79346;SDS011;68815;48.810;44.482;2023-04-24T09:57:50;9.4;;;1.9;;
79346;SDS011;68815;48.810;44.482;2023-04-24T10:00:53;6.6;;;1.6;;
79346;SDS011;68815;48.810;44.482;2023-04-24T10:03:55;5.1;;;1.4;;
79346;SDS011;68815;48.810;44.482;2023-04-24T10:06:57;6.2;;;1.9;;
79346;SDS011;68815;48.810;44.482;2023-04-24T10:09:58;3.7;;;1.5;;
79346;SDS011;68815;48.810;44.482;2023-04-24T10:13:00;4.6;;;1.4;;
79346;SDS011;68815;48.810;44.482;2023-04-24T10:16:02;6;;;1.7;;
79346;SDS011;68815;48.810;44.482;2023-04-24T10:19:05;6.2;;;1.8;;
79346;SDS011;68815;48.810;44.482;2023-04-24T10:22:07;7.4;;;2;;
79346;SDS011;68815;48.810;44.482;2023-04-24T10:25:09;5;;;1.7;;
79346;SDS011;68815;48.810;44.482;2023-04-24T10:28:11;5.9;;;1.8;;
79346;SDS011;68815;48.810;44.482;2023-04-24T10:31:13;4.3;;;1.9;;
79346;SDS011;68815;48.810;44.482;2023-04-24T10:34:15;8.4;;;2;;
79346;SDS011;68815;48.810;44.482;2023-04-24T10:37:20;4.6;;;1.9;;
79346;SDS011;68815;48.810;44.482;2023-04-24T10:40:25;6.1;;;2.1;;
79346;SDS011;68815;48.810;44.482;2023-04-24T10:43:28;5.7;;;1.9;;
79346;SDS011;68815;48.810;44.482;2023-04-24T10:46:29;7.2;;;2.2;;
79346;SDS011;68815;48.810;44.482;2023-04-24T10:49:31;4.7;;;2.1;;
79346;SDS011;68815;48.810;44.482;2023-04-24T10:55:47;6.3;;;2;;
79346;SDS011;68815;48.810;44.482;2023-04-24T10:58:50;7.2;;;2.5;;
79346;SDS011;68815;48.810;44.482;2023-04-24T11:01:52;9.3;;;2.6;;
79346;SDS011;68815;48.810;44.482;2023-04-24T11:04:55;6.9;;;2.4;;
79346;SDS011;68815;48.810;44.482;2023-04-24T11:11:15;5.6;;;2;;
79346;SDS011;68815;48.810;44.482;2023-04-24T11:14:19;5.1;;;2;;
79346;SDS011;68815;48.810;44.482;2023-04-24T11:17:30;4.1;;;1.9;;
79346;SDS011;68815;48.810;44.482;2023-04-24T11:20:32;6.8;;;2.6;;
79346;SDS011;68815;48.810;44.482;2023-04-24T11:23:35;5.9;;;2;;
79346;SDS011;68815;48.810;44.482;2023-04-24T11:26:37;5.8;;;2.2;;
79346;SDS011;68815;48.810;44.482;2023-04-24T11:29:40;5.3;;;2;;
79346;SDS011;68815;48.810;44.482;2023-04-24T11:32:42;6.3;;;2.1;;
79346;SDS011;68815;48.810;44.482;2023-04-24T11:35:44;5.4;;;2.2;;
79346;SDS011;68815;48.810;44.482;2023-04-24T11:38:46;6.2;;;2;;
79346;SDS011;68815;48.810;44.482;2023-04-24T11:41:48;5.2;;;2.2;;
79346;SDS011;68815;48.810;44.482;2023-04-24T11:44:51;5.2;;;2.3;;
79346;SDS011;68815;48.810;44.482;2023-04-24T11:47:53;7;;;2.4;;
79346;SDS011;68815;48.810;44.482;2023-04-24T11:50:55;6;;;2.2;;
79346;SDS011;68815;48.810;44.482;2023-04-24T11:53:56;5.7;;;2.3;;
79346;SDS011;68815;48.810;44.482;2023-04-24T11:56:58;6.3;;;2.3;;
79346;SDS011;68815;48.810;44.482;2023-04-24T11:59:59;7.3;;;2.4;;
79346;SDS011;68815;48.810;44.482;2023-04-24T12:03:05;7.2;;;2.7;;
79346;SDS011;68815;48.810;44.482;2023-04-24T12:06:08;8.8;;;3.3;;
79346;SDS011;68815;48.810;44.482;2023-04-24T12:09:11;8.1;;;3.6;;
79346;SDS011;68815;48.810;44.482;2023-04-24T12:12:12;10.6;;;4.3;;
79346;SDS011;68815;48.810;44.482;2023-04-24T12:15:15;12.2;;;4.5;;
79346;SDS011;68815;48.810;44.482;2023-04-24T12:18:17;8.6;;;3.8;;
79346;SDS011;68815;48.810;44.482;2023-04-24T12:21:19;8.3;;;3.5;;
79346;SDS011;68815;48.810;44.482;2023-04-24T12:24:22;7.5;;;3.1;;
79346;SDS011;68815;48.810;44.482;2023-04-24T12:27:23;8.6;;;2.5;;
79346;SDS011;68815;48.810;44.482;2023-04-24T12:30:26;6.2;;;2.1;;
79346;SDS011;68815;48.810;44.482;2023-04-24T12:33:32;7.2;;;2.3;;
79346;SDS011;68815;48.810;44.482;2023-04-24T12:36:35;7.1;;;2.4;;
79346;SDS011;68815;48.810;44.482;2023-04-24T12:39:36;5.7;;;2.4;;
79346;SDS011;68815;48.810;44.482;2023-04-24T12:42:42;7.5;;;2.6;;
79346;SDS011;68815;48.810;44.482;2023-04-24T12:45:45;7.8;;;3.1;;
79346;SDS011;68815;48.810;44.482;2023-04-24T12:48:49;7.6;;;3.1;;
79346;SDS011;68815;48.810;44.482;2023-04-24T12:51:51;6.4;;;3.1;;
79346;SDS011;68815;48.810;44.482;2023-04-24T12:54:53;5.6;;;2.9;;
79346;SDS011;68815;48.810;44.482;2023-04-24T12:57:55;7.4;;;3.1;;
79346;SDS011;68815;48.810;44.482;2023-04-24T13:00:57;6.4;;;2.6;;
79346;SDS011;68815;48.810;44.482;2023-04-24T13:03:58;7.3;;;2.4;;
79346;SDS011;68815;48.810;44.482;2023-04-24T13:07:00;5.8;;;2.2;;
79346;SDS011;68815;48.810;44.482;2023-04-24T13:10:01;6.8;;;2.6;;
79346;SDS011;68815;48.810;44.482;2023-04-24T13:13:06;7.6;;;2.6;;
79346;SDS011;68815;48.810;44.482;2023-04-24T13:16:08;5.3;;;2.4;;
79346;SDS011;68815;48.810;44.482;2023-04-24T13:19:09;6.5;;;2.3;;
79346;SDS011;68815;48.810;44.482;2023-04-24T13:22:11;6;;;2;;
79346;SDS011;68815;48.810;44.482;2023-04-24T13:25:13;4.9;;;1.7;;
79346;SDS011;68815;48.810;44.482;2023-04-24T13:28:15;3.9;;;1.7;;
79346;SDS011;68815;48.810;44.482;2023-04-24T13:31:16;4.8;;;1.7;;
79346;SDS011;68815;48.810;44.482;2023-04-24T13:34:18;5.9;;;1.9;;
79346;SDS011;68815;48.810;44.482;2023-04-24T13:37:19;4.1;;;1.8;;
79346;SDS011;68815;48.810;44.482;2023-04-24T13:40:21;5.5;;;2;;
79346;SDS011;68815;48.810;44.482;2023-04-24T13:43:22;5.5;;;1.8;;
79346;SDS011;68815;48.810;44.482;2023-04-24T13:46:24;5.1;;;2.1;;
79346;SDS011;68815;48.810;44.482;2023-04-24T13:49:26;4.7;;;2.1;;
79346;SDS011;68815;48.810;44.482;2023-04-24T13:52:27;5.5;;;2;;
79346;SDS011;68815;48.810;44.482;2023-04-24T13:55:29;5;;;2;;
79346;SDS011;68815;48.810;44.482;2023-04-24T13:58:30;6.2;;;2.1;;
79346;SDS011;68815;48.810;44.482;2023-04-24T14:01:32;6.1;;;2.2;;
79346;SDS011;68815;48.810;44.482;2023-04-24T14:04:33;5.1;;;2.2;;
79346;SDS011;68815;48.810;44.482;2023-04-24T14:07:35;5.2;;;2.3;;
79346;SDS011;68815;48.810;44.482;2023-04-24T14:10:42;6.4;;;2.2;;
79346;SDS011;68815;48.810;44.482;2023-04-24T14:13:44;5.1;;;2.3;;
79346;SDS011;68815;48.810;44.482;2023-04-24T14:16:47;6.8;;;2.5;;
79346;SDS011;68815;48.810;44.482;2023-04-24T14:19:48;5.1;;;2.1;;
79346;SDS011;68815;48.810;44.482;2023-04-24T14:22:50;6.7;;;2;;
79346;SDS011;68815;48.810;44.482;2023-04-24T14:25:51;5.8;;;2.1;;
79346;SDS011;68815;48.810;44.482;2023-04-24T14:28:53;5.4;;;1.9;;
79346;SDS011;68815;48.810;44.482;2023-04-24T14:31:54;3.6;;;1.6;;
79346;SDS011;68815;48.810;44.482;2023-04-24T14:34:56;4.8;;;1.8;;
79346;SDS011;68815;48.810;44.482;2023-04-24T14:37:57;4.2;;;1.4;;
79346;SDS011;68815;48.810;44.482;2023-04-24T14:40:59;4.2;;;1.6;;
79346;SDS011;68815;48.810;44.482;2023-04-24T14:44:00;3.2;;;1.4;;
79346;SDS011;68815;48.810;44.482;2023-04-24T14:47:02;5.5;;;1.7;;
79346;SDS011;68815;48.810;44.482;2023-04-24T14:50:03;5;;;1.8;;
79346;SDS011;68815;48.810;44.482;2023-04-24T14:53:05;4.7;;;1.8;;
79346;SDS011;68815;48.810;44.482;2023-04-24T14:56:07;5.5;;;2.3;;
79346;SDS011;68815;48.810;44.482;2023-04-24T14:59:08;4.9;;;2.4;;
79346;SDS011;68815;48.810;44.482;2023-04-24T15:02:10;5.8;;;2.7;;
79346;SDS011;68815;48.810;44.482;2023-04-24T15:05:12;6.1;;;2.6;;
79346;SDS011;68815;48.810;44.482;2023-04-24T15:08:13;5.8;;;2.7;;
79346;SDS011;68815;48.810;44.482;2023-04-24T15:11:14;5;;;2.4;;
79346;SDS011;68815;48.810;44.482;2023-04-24T15:14:17;4.7;;;2.4;;
79346;SDS011;68815;48.810;44.482;2023-04-24T15:17:19;6.3;;;2.6;;
79346;SDS011;68815;48.810;44.482;2023-04-24T15:20:21;5.4;;;3;;
79346;SDS011;68815;48.810;44.482;2023-04-24T15:23:22;6.7;;;2.8;;
79346;SDS011;68815;48.810;44.482;2023-04-24T15:26:25;6.5;;;2.9;;
79346;SDS011;68815;48.810;44.482;2023-04-24T15:29:26;4.5;;;2.3;;
79346;SDS011;68815;48.810;44.482;2023-04-24T15:32:28;5.6;;;2.1;;
79346;SDS011;68815;48.810;44.482;2023-04-24T15:35:29;5.8;;;2.5;;
79346;SDS011;68815;48.810;44.482;2023-04-24T15:38:31;6.4;;;2.3;;
79346;SDS011;68815;48.810;44.482;2023-04-24T15:41:32;6.5;;;2.6;;
79346;SDS011;68815;48.810;44.482;2023-04-24T15:44:34;6;;;2.3;;
79346;SDS011;68815;48.810;44.482;2023-04-24T15:47:35;5.8;;;2.1;;
79346;SDS011;68815;48.810;44.482;2023-04-24T15:50:37;5;;;2.1;;
79346;SDS011;68815;48.810;44.482;2023-04-24T15:53:38;5.1;;;2.2;;
79346;SDS011;68815;48.810;44.482;2023-04-24T15:56:40;4.8;;;1.9;;
79346;SDS011;68815;48.810;44.482;2023-04-24T15:59:41;6.5;;;2.2;;
79346;SDS011;68815;48.810;44.482;2023-04-24T16:02:43;4.4;;;2.1;;
79346;SDS011;68815;48.810;44.482;2023-04-24T16:05:45;5.9;;;2.2;;
79346;SDS011;68815;48.810;44.482;2023-04-24T16:08:46;4.8;;;2.1;;
79346;SDS011;68815;48.810;44.482;2023-04-24T16:11:48;5.3;;;2;;
79346;SDS011;68815;48.810;44.482;2023-04-24T16:14:55;5.1;;;2.1;;
79346;SDS011;68815;48.810;44.482;2023-04-24T16:17:57;5.1;;;2.1;;
79346;SDS011;68815;48.810;44.482;2023-04-24T16:20:58;5.4;;;2.4;;
79346;SDS011;68815;48.810;44.482;2023-04-24T16:24:01;4.3;;;2.1;;
79346;SDS011;68815;48.810;44.482;2023-04-24T16:27:07;6.2;;;2.6;;
79346;SDS011;68815;48.810;44.482;2023-04-24T16:30:09;5.9;;;2.3;;
79346;SDS011;68815;48.810;44.482;2023-04-24T16:33:11;5;;;2.2;;
79346;SDS011;68815;48.810;44.482;2023-04-24T16:36:13;6.9;;;2.3;;
79346;SDS011;68815;48.810;44.482;2023-04-24T16:39:14;4.5;;;1.9;;
79346;SDS011;68815;48.810;44.482;2023-04-24T16:42:15;5.7;;;2.1;;
79346;SDS011;68815;48.810;44.482;2023-04-24T16:45:17;6;;;2.2;;
79346;SDS011;68815;48.810;44.482;2023-04-24T16:48:18;5.4;;;2.4;;
79346;SDS011;68815;48.810;44.482;2023-04-24T16:51:20;5.8;;;2;;
79346;SDS011;68815;48.810;44.482;2023-04-24T16:54:21;4.4;;;1.7;;
79346;SDS011;68815;48.810;44.482;2023-04-24T16:57:23;7;;;1.9;;
79346;SDS011;68815;48.810;44.482;2023-04-24T17:00:25;4.4;;;1.7;;
79346;SDS011;68815;48.810;44.482;2023-04-24T17:03:26;5.2;;;1.6;;
79346;SDS011;68815;48.810;44.482;2023-04-24T17:06:28;4.8;;;1.7;;
79346;SDS011;68815;48.810;44.482;2023-04-24T17:09:30;5.8;;;2.2;;
79346;SDS011;68815;48.810;44.482;2023-04-24T17:12:31;5.5;;;2.2;;
79346;SDS011;68815;48.810;44.482;2023-04-24T17:15:32;4.8;;;2.3;;
79346;SDS011;68815;48.810;44.482;2023-04-24T17:18:34;6.2;;;1.8;;
79346;SDS011;68815;48.810;44.482;2023-04-24T17:21:35;5.3;;;1.9;;
79346;SDS011;68815;48.810;44.482;2023-04-24T17:24:37;5.2;;;1.9;;
79346;SDS011;68815;48.810;44.482;2023-04-24T17:27:39;5.7;;;1.9;;
79346;SDS011;68815;48.810;44.482;2023-04-24T17:30:41;5.2;;;2;;
79346;SDS011;68815;48.810;44.482;2023-04-24T17:37:04;5.1;;;2.1;;
79346;SDS011;68815;48.810;44.482;2023-04-24T17:40:06;7.2;;;2.4;;
79346;SDS011;68815;48.810;44.482;2023-04-24T17:43:08;7.7;;;2.6;;
79346;SDS011;68815;48.810;44.482;2023-04-24T17:46:10;6.7;;;2.7;;
79346;SDS011;68815;48.810;44.482;2023-04-24T17:49:12;5.8;;;2.6;;
79346;SDS011;68815;48.810;44.482;2023-04-24T17:52:13;4.9;;;2.2;;
79346;SDS011;68815;48.810;44.482;2023-04-24T17:55:15;5.5;;;2.1;;
79346;SDS011;68815;48.810;44.482;2023-04-24T18:01:48;5.6;;;1.8;;
79346;SDS011;68815;48.810;44.482;2023-04-24T18:04:50;4.7;;;1.6;;
79346;SDS011;68815;48.810;44.482;2023-04-24T18:07:51;4.7;;;1.8;;
79346;SDS011;68815;48.810;44.482;2023-04-24T18:10:52;4.2;;;1.9;;
79346;SDS011;68815;48.810;44.482;2023-04-24T18:13:55;5.5;;;1.8;;
79346;SDS011;68815;48.810;44.482;2023-04-24T18:16:57;4.8;;;1.7;;
79346;SDS011;68815;48.810;44.482;2023-04-24T18:19:58;7.1;;;2;;
79346;SDS011;68815;48.810;44.482;2023-04-24T18:23:00;6.3;;;1.8;;
79346;SDS011;68815;48.810;44.482;2023-04-24T18:26:01;7.3;;;2;;
79346;SDS011;68815;48.810;44.482;2023-04-24T18:29:03;5.2;;;1.9;;
79346;SDS011;68815;48.810;44.482;2023-04-24T18:32:04;6.3;;;1.9;;
79346;SDS011;68815;48.810;44.482;2023-04-24T18:35:06;4.5;;;2;;
79346;SDS011;68815;48.810;44.482;2023-04-24T18:38:08;5.5;;;2;;
79346;SDS011;68815;48.810;44.482;2023-04-24T18:41:10;4.9;;;1.9;;
79346;SDS011;68815;48.810;44.482;2023-04-24T18:44:11;4.7;;;1.9;;